sensor_id;sensor_type;location;lat;lon;timestamp;pressure;altitude;pressure_sealevel;temperature;humidity
40490;BME280;26196;52.302;10.572;2023-04-02T00:03:23;100288.59;;;13.86;49.49
40490;BME280;26196;52.302;10.572;2023-04-02T00:07:25;100296.44;;;13.88;50.33
40490;BME280;26196;52.302;10.572;2023-04-02T00:11:33;100300.13;;;13.84;50.04
40490;BME280;26196;52.302;10.572;2023-04-02T00:15:39;100315.84;;;13.85;49.63
40490;BME280;26196;52.302;10.572;2023-04-02T00:19:49;100311.63;;;13.81;49.90
40490;BME280;26196;52.302;10.572;2023-04-02T00:23:53;100329.25;;;13.79;50.51
40490;BME280;26196;52.302;10.572;2023-04-02T00:27:54;100337.56;;;13.70;49.43
40490;BME280;26196;52.302;10.572;2023-04-02T00:31:57;100337.81;;;13.64;49.24
40490;BME280;26196;52.302;10.572;2023-04-02T00:35:57;100352.66;;;13.65;49.69
40490;BME280;26196;52.302;10.572;2023-04-02T00:40:04;100352.47;;;13.69;50.38
40490;BME280;26196;52.302;10.572;2023-04-02T00:44:10;100359.44;;;13.70;49.63
40490;BME280;26196;52.302;10.572;2023-04-02T00:52:30;100378.13;;;13.64;50.37
40490;BME280;26196;52.302;10.572;2023-04-02T00:56:41;100372.00;;;13.64;49.77
40490;BME280;26196;52.302;10.572;2023-04-02T01:00:47;100382.75;;;13.57;49.95
40490;BME280;26196;52.302;10.572;2023-04-02T01:05:34;100382.91;;;13.54;50.17
40490;BME280;26196;52.302;10.572;2023-04-02T01:13:54;100404.91;;;13.52;48.96
40490;BME280;26196;52.302;10.572;2023-04-02T01:30:39;100430.81;;;13.41;49.74
40490;BME280;26196;52.302;10.572;2023-04-02T01:34:41;100443.19;;;13.37;49.04
40490;BME280;26196;52.302;10.572;2023-04-02T01:38:52;100432.94;;;13.31;49.52
40490;BME280;26196;52.302;10.572;2023-04-02T01:42:59;100452.94;;;13.35;49.71
40490;BME280;26196;52.302;10.572;2023-04-02T01:47:05;100454.69;;;13.34;49.53
40490;BME280;26196;52.302;10.572;2023-04-02T01:51:24;100466.25;;;13.30;49.63
40490;BME280;26196;52.302;10.572;2023-04-02T01:59:38;100475.91;;;13.30;48.41
40490;BME280;26196;52.302;10.572;2023-04-02T02:03:40;100488.34;;;13.25;49.09
40490;BME280;26196;52.302;10.572;2023-04-02T02:07:42;100492.72;;;13.24;49.24
40490;BME280;26196;52.302;10.572;2023-04-02T02:11:43;100496.34;;;13.22;48.84
40490;BME280;26196;52.302;10.572;2023-04-02T02:15:43;100503.44;;;13.20;48.70
40490;BME280;26196;52.302;10.572;2023-04-02T02:19:46;100513.28;;;13.14;49.11
40490;BME280;26196;52.302;10.572;2023-04-02T02:23:48;100518.69;;;13.10;48.74
40490;BME280;26196;52.302;10.572;2023-04-02T02:31:57;100524.78;;;13.10;49.05
40490;BME280;26196;52.302;10.572;2023-04-02T02:40:20;100537.38;;;13.02;49.13
40490;BME280;26196;52.302;10.572;2023-04-02T02:44:25;100552.97;;;13.07;49.00
40490;BME280;26196;52.302;10.572;2023-04-02T02:48:33;100566.38;;;12.99;48.74
40490;BME280;26196;52.302;10.572;2023-04-02T02:52:37;100565.94;;;12.88;48.84
40490;BME280;26196;52.302;10.572;2023-04-02T02:56:40;100578.03;;;12.92;48.83
40490;BME280;26196;52.302;10.572;2023-04-02T03:00:44;100581.47;;;12.94;49.11
40490;BME280;26196;52.302;10.572;2023-04-02T03:04:47;100584.41;;;12.85;48.76
40490;BME280;26196;52.302;10.572;2023-04-02T03:09:20;100594.13;;;12.83;48.75
40490;BME280;26196;52.302;10.572;2023-04-02T03:13:28;100604.53;;;12.86;48.71
40490;BME280;26196;52.302;10.572;2023-04-02T03:17:38;100608.91;;;12.85;48.30
40490;BME280;26196;52.302;10.572;2023-04-02T03:22:01;100619.63;;;12.79;48.66
40490;BME280;26196;52.302;10.572;2023-04-02T03:26:11;100626.66;;;12.79;48.72
40490;BME280;26196;52.302;10.572;2023-04-02T03:30:37;100635.63;;;12.72;48.97
40490;BME280;26196;52.302;10.572;2023-04-02T03:35:02;100643.41;;;12.75;49.38
40490;BME280;26196;52.302;10.572;2023-04-02T03:39:17;100647.97;;;12.69;48.23
40490;BME280;26196;52.302;10.572;2023-04-02T03:43:23;100660.25;;;12.69;48.60
40490;BME280;26196;52.302;10.572;2023-04-02T03:47:37;100681.31;;;12.67;49.54
40490;BME280;26196;52.302;10.572;2023-04-02T03:55:56;100691.84;;;12.66;49.34
40490;BME280;26196;52.302;10.572;2023-04-02T04:00:03;100699.00;;;12.62;49.28
40490;BME280;26196;52.302;10.572;2023-04-02T04:04:15;100705.13;;;12.61;49.69
40490;BME280;26196;52.302;10.572;2023-04-02T04:08:21;100718.25;;;12.61;48.18
40490;BME280;26196;52.302;10.572;2023-04-02T04:12:27;100720.38;;;12.50;48.49
40490;BME280;26196;52.302;10.572;2023-04-02T04:16:33;100723.00;;;12.50;49.40
40490;BME280;26196;52.302;10.572;2023-04-02T04:20:48;100729.81;;;12.56;49.49
40490;BME280;26196;52.302;10.572;2023-04-02T04:24:49;100736.88;;;12.54;49.06
40490;BME280;26196;52.302;10.572;2023-04-02T04:33:33;100753.47;;;12.56;49.18
40490;BME280;26196;52.302;10.572;2023-04-02T04:37:40;100771.94;;;12.53;48.82
40490;BME280;26196;52.302;10.572;2023-04-02T04:41:43;100761.47;;;12.51;48.01
40490;BME280;26196;52.302;10.572;2023-04-02T04:45:50;100772.03;;;12.50;48.88
40490;BME280;26196;52.302;10.572;2023-04-02T04:49:56;100783.44;;;12.48;49.48
40490;BME280;26196;52.302;10.572;2023-04-02T04:53:57;100794.09;;;12.44;48.64
40490;BME280;26196;52.302;10.572;2023-04-02T04:58:03;100794.00;;;12.47;48.62
40490;BME280;26196;52.302;10.572;2023-04-02T05:02:18;100808.94;;;12.45;48.95
40490;BME280;26196;52.302;10.572;2023-04-02T05:06:33;100808.94;;;12.45;49.48
40490;BME280;26196;52.302;10.572;2023-04-02T05:10:54;100815.13;;;12.42;48.77
40490;BME280;26196;52.302;10.572;2023-04-02T05:15:00;100832.69;;;12.40;49.46
40490;BME280;26196;52.302;10.572;2023-04-02T05:19:21;100832.75;;;12.39;48.74
40490;BME280;26196;52.302;10.572;2023-04-02T05:23:27;100841.50;;;12.38;49.30
40490;BME280;26196;52.302;10.572;2023-04-02T05:27:43;100846.84;;;12.35;49.19
40490;BME280;26196;52.302;10.572;2023-04-02T05:31:59;100862.66;;;12.33;49.19
40490;BME280;26196;52.302;10.572;2023-04-02T05:36:05;100863.56;;;12.32;49.42
40490;BME280;26196;52.302;10.572;2023-04-02T05:40:16;100877.50;;;12.34;49.12
40490;BME280;26196;52.302;10.572;2023-04-02T05:44:41;100888.03;;;12.33;49.35
40490;BME280;26196;52.302;10.572;2023-04-02T05:48:55;100890.72;;;12.31;48.48
40490;BME280;26196;52.302;10.572;2023-04-02T05:53:09;100900.50;;;12.24;49.21
40490;BME280;26196;52.302;10.572;2023-04-02T05:57:19;100915.28;;;12.29;47.99
40490;BME280;26196;52.302;10.572;2023-04-02T06:01:35;100923.19;;;12.27;48.89
40490;BME280;26196;52.302;10.572;2023-04-02T06:05:41;100928.66;;;12.19;48.15
40490;BME280;26196;52.302;10.572;2023-04-02T06:09:48;100940.94;;;12.17;48.76
40490;BME280;26196;52.302;10.572;2023-04-02T06:13:50;100942.91;;;12.09;48.04
40490;BME280;26196;52.302;10.572;2023-04-02T06:17:57;100951.63;;;12.11;49.43
40490;BME280;26196;52.302;10.572;2023-04-02T06:22:08;100956.84;;;12.13;49.38
40490;BME280;26196;52.302;10.572;2023-04-02T06:30:34;100972.53;;;12.14;49.68
40490;BME280;26196;52.302;10.572;2023-04-02T06:34:38;100975.16;;;12.14;49.37
40490;BME280;26196;52.302;10.572;2023-04-02T06:38:39;100992.53;;;12.18;49.39
40490;BME280;26196;52.302;10.572;2023-04-02T06:42:43;100998.75;;;12.14;49.38
40490;BME280;26196;52.302;10.572;2023-04-02T06:46:51;101004.09;;;12.11;49.53
40490;BME280;26196;52.302;10.572;2023-04-02T06:51:04;101010.13;;;12.15;49.96
40490;BME280;26196;52.302;10.572;2023-04-02T06:59:21;101028.47;;;12.16;50.23
40490;BME280;26196;52.302;10.572;2023-04-02T07:07:23;101033.78;;;12.13;50.10
40490;BME280;26196;52.302;10.572;2023-04-02T07:11:24;101033.81;;;12.12;50.54
40490;BME280;26196;52.302;10.572;2023-04-02T07:15:25;101056.50;;;12.14;50.61
40490;BME280;26196;52.302;10.572;2023-04-02T07:19:25;101062.59;;;12.15;50.54
40490;BME280;26196;52.302;10.572;2023-04-02T07:23:26;101066.06;;;12.17;50.41
40490;BME280;26196;52.302;10.572;2023-04-02T07:27:26;101061.75;;;12.14;49.36
40490;BME280;26196;52.302;10.572;2023-04-02T07:31:27;101071.50;;;12.09;50.75
40490;BME280;26196;52.302;10.572;2023-04-02T07:35:28;101089.81;;;12.12;50.48
40490;BME280;26196;52.302;10.572;2023-04-02T07:39:28;101100.41;;;12.08;49.33
40490;BME280;26196;52.302;10.572;2023-04-02T07:43:29;101102.94;;;12.12;50.59
40490;BME280;26196;52.302;10.572;2023-04-02T07:47:30;101112.53;;;12.12;50.22
40490;BME280;26196;52.302;10.572;2023-04-02T07:51:31;101119.63;;;12.10;49.93
40490;BME280;26196;52.302;10.572;2023-04-02T07:55:31;101128.34;;;12.10;49.82
40490;BME280;26196;52.302;10.572;2023-04-02T07:59:31;101138.84;;;12.10;50.61
40490;BME280;26196;52.302;10.572;2023-04-02T08:03:32;101142.50;;;12.03;49.26
40490;BME280;26196;52.302;10.572;2023-04-02T08:07:32;101156.53;;;12.02;49.54
40490;BME280;26196;52.302;10.572;2023-04-02T08:11:32;101159.16;;;12.00;49.02
40490;BME280;26196;52.302;10.572;2023-04-02T08:15:33;101161.81;;;11.99;50.24
40490;BME280;26196;52.302;10.572;2023-04-02T08:19:33;101160.19;;;11.95;49.28
40490;BME280;26196;52.302;10.572;2023-04-02T08:23:34;101182.09;;;11.92;48.96
40490;BME280;26196;52.302;10.572;2023-04-02T08:27:35;101185.66;;;11.90;49.88
40490;BME280;26196;52.302;10.572;2023-04-02T08:31:35;101196.66;;;12.06;51.07
40490;BME280;26196;52.302;10.572;2023-04-02T08:35:36;101203.59;;;12.08;50.83
40490;BME280;26196;52.302;10.572;2023-04-02T08:39:36;101212.44;;;12.04;51.43
40490;BME280;26196;52.302;10.572;2023-04-02T08:43:47;101215.13;;;12.01;50.70
40490;BME280;26196;52.302;10.572;2023-04-02T08:47:55;101222.06;;;12.03;51.55
40490;BME280;26196;52.302;10.572;2023-04-02T08:51:56;101224.75;;;12.02;51.49
40490;BME280;26196;52.302;10.572;2023-04-02T08:56:22;101229.09;;;12.03;51.29
40490;BME280;26196;52.302;10.572;2023-04-02T09:00:41;101244.72;;;12.08;51.72
40490;BME280;26196;52.302;10.572;2023-04-02T09:04:43;101248.28;;;12.05;51.73
40490;BME280;26196;52.302;10.572;2023-04-02T09:08:45;101262.34;;;12.02;49.74
40490;BME280;26196;52.302;10.572;2023-04-02T09:12:50;101261.44;;;12.03;51.23
40490;BME280;26196;52.302;10.572;2023-04-02T09:16:59;101267.53;;;12.04;50.12
40490;BME280;26196;52.302;10.572;2023-04-02T09:25:24;101271.97;;;12.02;50.78
40490;BME280;26196;52.302;10.572;2023-04-02T09:33:44;101290.22;;;12.07;51.47
40490;BME280;26196;52.302;10.572;2023-04-02T09:37:44;101285.91;;;12.04;51.80
40490;BME280;26196;52.302;10.572;2023-04-02T09:41:46;101292.84;;;12.07;51.45
40490;BME280;26196;52.302;10.572;2023-04-02T09:50:33;101312.09;;;12.07;51.80
40490;BME280;26196;52.302;10.572;2023-04-02T09:54:34;101318.22;;;12.08;51.61
40490;BME280;26196;52.302;10.572;2023-04-02T09:58:42;101319.13;;;12.05;51.83
40490;BME280;26196;52.302;10.572;2023-04-02T10:02:59;101334.91;;;12.03;51.57
40490;BME280;26196;52.302;10.572;2023-04-02T10:07:00;101335.75;;;12.04;51.59
40490;BME280;26196;52.302;10.572;2023-04-02T10:11:07;101350.63;;;12.05;51.70
40490;BME280;26196;52.302;10.572;2023-04-02T10:15:20;101345.38;;;12.05;51.87
40490;BME280;26196;52.302;10.572;2023-04-02T10:23:26;101363.81;;;12.02;51.42
40490;BME280;26196;52.302;10.572;2023-04-02T10:27:50;101367.25;;;12.04;51.67
40490;BME280;26196;52.302;10.572;2023-04-02T10:32:25;101369.84;;;12.06;51.82
40490;BME280;26196;52.302;10.572;2023-04-02T10:45:16;101382.06;;;12.07;52.15
40490;BME280;26196;52.302;10.572;2023-04-02T10:57:39;101381.91;;;12.14;50.92
40490;BME280;26196;52.302;10.572;2023-04-02T11:01:41;101392.34;;;12.17;51.72
40490;BME280;26196;52.302;10.572;2023-04-02T11:05:48;101404.59;;;12.18;51.84
40490;BME280;26196;52.302;10.572;2023-04-02T11:09:52;101408.97;;;12.18;52.05
40490;BME280;26196;52.302;10.572;2023-04-02T11:18:27;101422.13;;;12.16;52.19
40490;BME280;26196;52.302;10.572;2023-04-02T11:22:28;101410.78;;;12.14;51.84
40490;BME280;26196;52.302;10.572;2023-04-02T11:26:33;101418.63;;;12.16;52.20
40490;BME280;26196;52.302;10.572;2023-04-02T11:30:34;101426.44;;;12.20;51.60
40490;BME280;26196;52.302;10.572;2023-04-02T11:42:47;101430.53;;;12.34;51.46
40490;BME280;26196;52.302;10.572;2023-04-02T11:46:47;101432.19;;;12.38;51.80
40490;BME280;26196;52.302;10.572;2023-04-02T11:50:48;101432.19;;;12.39;51.97
40490;BME280;26196;52.302;10.572;2023-04-02T11:54:57;101437.41;;;12.41;52.11
40490;BME280;26196;52.302;10.572;2023-04-02T12:08:14;101460.84;;;12.48;51.99
40490;BME280;26196;52.302;10.572;2023-04-02T12:12:28;101459.75;;;12.60;52.47
40490;BME280;26196;52.302;10.572;2023-04-02T12:16:32;101459.84;;;12.57;53.10
40490;BME280;26196;52.302;10.572;2023-04-02T12:20:33;101455.44;;;12.58;52.44
40490;BME280;26196;52.302;10.572;2023-04-02T12:24:34;101457.22;;;12.56;53.57
40490;BME280;26196;52.302;10.572;2023-04-02T12:28:34;101453.88;;;12.49;52.15
40490;BME280;26196;52.302;10.572;2023-04-02T12:32:37;101466.19;;;12.45;52.22
40490;BME280;26196;52.302;10.572;2023-04-02T12:36:37;101464.31;;;12.52;52.22
40490;BME280;26196;52.302;10.572;2023-04-02T12:40:39;101467.78;;;12.54;52.70
40490;BME280;26196;52.302;10.572;2023-04-02T12:44:47;101475.59;;;12.57;53.45
40490;BME280;26196;52.302;10.572;2023-04-02T12:48:48;101462.41;;;12.59;52.81
40490;BME280;26196;52.302;10.572;2023-04-02T12:52:49;101472.03;;;12.60;52.33
40490;BME280;26196;52.302;10.572;2023-04-02T12:56:52;101473.81;;;12.59;53.17
40490;BME280;26196;52.302;10.572;2023-04-02T13:01:12;101471.13;;;12.61;52.57
40490;BME280;26196;52.302;10.572;2023-04-02T13:05:36;101480.72;;;12.63;52.83
40490;BME280;26196;52.302;10.572;2023-04-02T13:09:44;101479.75;;;12.67;54.38
40490;BME280;26196;52.302;10.572;2023-04-02T13:18:44;101485.97;;;12.63;52.53
40490;BME280;26196;52.302;10.572;2023-04-02T13:22:45;101493.75;;;12.68;52.68
40490;BME280;26196;52.302;10.572;2023-04-02T13:27:19;101487.56;;;12.70;52.81
40490;BME280;26196;52.302;10.572;2023-04-02T13:31:20;101494.66;;;12.67;52.45
40490;BME280;26196;52.302;10.572;2023-04-02T13:35:57;101498.94;;;12.73;53.79
40490;BME280;26196;52.302;10.572;2023-04-02T13:40:35;101498.00;;;12.74;53.31
40490;BME280;26196;52.302;10.572;2023-04-02T13:49:50;101500.66;;;12.74;53.72
40490;BME280;26196;52.302;10.572;2023-04-02T13:59:04;101510.22;;;12.78;52.85
40490;BME280;26196;52.302;10.572;2023-04-02T14:03:40;101502.28;;;12.79;52.97
40490;BME280;26196;52.302;10.572;2023-04-02T14:22:16;101530.25;;;12.82;53.87
40490;BME280;26196;52.302;10.572;2023-04-02T14:36:06;101531.94;;;12.84;53.66
40490;BME280;26196;52.302;10.572;2023-04-02T14:40:39;101541.44;;;12.93;52.97
40490;BME280;26196;52.302;10.572;2023-04-02T14:46:05;101546.69;;;12.93;53.08
40490;BME280;26196;52.302;10.572;2023-04-02T14:54:33;101548.53;;;12.88;52.06
40490;BME280;26196;52.302;10.572;2023-04-02T14:59:15;101558.97;;;12.91;52.46
40490;BME280;26196;52.302;10.572;2023-04-02T15:03:24;101558.91;;;12.94;52.29
40490;BME280;26196;52.302;10.572;2023-04-02T15:07:34;101563.25;;;12.95;52.57
40490;BME280;26196;52.302;10.572;2023-04-02T15:12:06;101569.41;;;12.96;53.57
40490;BME280;26196;52.302;10.572;2023-04-02T15:16:19;101574.63;;;12.97;53.73
40490;BME280;26196;52.302;10.572;2023-04-02T15:20:20;101566.72;;;12.97;53.27
40490;BME280;26196;52.302;10.572;2023-04-02T15:38:23;101598.19;;;13.00;52.93
40490;BME280;26196;52.302;10.572;2023-04-02T15:57:00;101622.63;;;13.05;52.94
40490;BME280;26196;52.302;10.572;2023-04-02T16:10:47;101631.44;;;13.04;52.39
40490;BME280;26196;52.302;10.572;2023-04-02T16:48:26;101688.47;;;12.99;51.92
40490;BME280;26196;52.302;10.572;2023-04-02T16:53:03;101695.38;;;13.03;52.59
40490;BME280;26196;52.302;10.572;2023-04-02T17:11:38;101729.41;;;13.12;52.48
40490;BME280;26196;52.302;10.572;2023-04-02T17:15:40;101734.66;;;13.12;52.12
40490;BME280;26196;52.302;10.572;2023-04-02T17:20:17;101732.88;;;13.13;51.03
40490;BME280;26196;52.302;10.572;2023-04-02T17:24:56;101739.84;;;13.16;52.80
40490;BME280;26196;52.302;10.572;2023-04-02T17:29:34;101747.72;;;13.17;52.12
40490;BME280;26196;52.302;10.572;2023-04-02T17:34:13;101751.22;;;13.18;52.83
40490;BME280;26196;52.302;10.572;2023-04-02T17:57:22;101795.13;;;13.12;50.97
40490;BME280;26196;52.302;10.572;2023-04-02T18:02:01;101803.03;;;13.11;51.21
40490;BME280;26196;52.302;10.572;2023-04-02T18:52:51;101886.28;;;13.10;50.71
40490;BME280;26196;52.302;10.572;2023-04-02T18:57:29;101903.81;;;13.11;51.24
40490;BME280;26196;52.302;10.572;2023-04-02T19:06:48;101924.84;;;13.08;50.61
40490;BME280;26196;52.302;10.572;2023-04-02T19:16:18;101931.03;;;13.06;50.54
40490;BME280;26196;52.302;10.572;2023-04-02T19:21:12;101929.31;;;13.03;50.33
40490;BME280;26196;52.302;10.572;2023-04-02T19:34:52;101958.22;;;13.03;49.61
40490;BME280;26196;52.302;10.572;2023-04-02T19:39:29;101970.53;;;13.01;50.10
40490;BME280;26196;52.302;10.572;2023-04-02T19:44:01;101970.56;;;12.98;51.22
40490;BME280;26196;52.302;10.572;2023-04-02T19:53:17;101981.97;;;12.97;49.55
40490;BME280;26196;52.302;10.572;2023-04-02T19:57:52;101975.00;;;12.96;49.40
40490;BME280;26196;52.302;10.572;2023-04-02T20:07:07;101994.34;;;12.90;48.89
40490;BME280;26196;52.302;10.572;2023-04-02T20:11:07;101982.13;;;12.88;48.96
40490;BME280;26196;52.302;10.572;2023-04-02T20:15:44;101994.41;;;12.86;48.76
40490;BME280;26196;52.302;10.572;2023-04-02T20:20:20;101996.13;;;12.87;49.68
40490;BME280;26196;52.302;10.572;2023-04-02T20:24:57;102010.22;;;12.81;48.32
40490;BME280;26196;52.302;10.572;2023-04-02T20:28:57;102000.69;;;12.73;47.55
40490;BME280;26196;52.302;10.572;2023-04-02T20:33:32;102012.94;;;12.75;47.75
40490;BME280;26196;52.302;10.572;2023-04-02T20:38:09;102022.50;;;12.79;47.95
40490;BME280;26196;52.302;10.572;2023-04-02T20:42:45;102015.59;;;12.70;47.11
40490;BME280;26196;52.302;10.572;2023-04-02T20:47:22;102024.44;;;12.63;47.28
40490;BME280;26196;52.302;10.572;2023-04-02T21:05:49;102053.38;;;12.60;47.53
40490;BME280;26196;52.302;10.572;2023-04-02T21:09:50;102054.28;;;12.56;47.00
40490;BME280;26196;52.302;10.572;2023-04-02T21:14:25;102069.97;;;12.64;47.23
40490;BME280;26196;52.302;10.572;2023-04-02T21:19:04;102063.88;;;12.60;46.72
40490;BME280;26196;52.302;10.572;2023-04-02T21:28:19;102076.19;;;12.55;46.50
40490;BME280;26196;52.302;10.572;2023-04-02T21:32:56;102077.97;;;12.53;46.90
40490;BME280;26196;52.302;10.572;2023-04-02T21:37:33;102084.06;;;12.54;46.61
40490;BME280;26196;52.302;10.572;2023-04-02T21:46:47;102097.25;;;12.51;46.79
40490;BME280;26196;52.302;10.572;2023-04-02T21:51:23;102097.28;;;12.47;45.93
40490;BME280;26196;52.302;10.572;2023-04-02T22:00:38;102105.25;;;12.38;45.03
40490;BME280;26196;52.302;10.572;2023-04-02T22:05:16;102114.03;;;12.33;45.84
40490;BME280;26196;52.302;10.572;2023-04-02T22:09:53;102119.28;;;12.33;45.26
40490;BME280;26196;52.302;10.572;2023-04-02T22:13:54;102125.47;;;12.27;45.19
40490;BME280;26196;52.302;10.572;2023-04-02T22:18:29;102126.34;;;12.29;45.47
40490;BME280;26196;52.302;10.572;2023-04-02T22:23:03;102124.63;;;12.23;45.22
40490;BME280;26196;52.302;10.572;2023-04-02T22:27:04;102133.41;;;12.19;45.24
40490;BME280;26196;52.302;10.572;2023-04-02T22:31:41;102139.56;;;12.15;44.87
40490;BME280;26196;52.302;10.572;2023-04-02T22:36:19;102130.84;;;12.13;44.83
40490;BME280;26196;52.302;10.572;2023-04-02T22:44:59;102140.53;;;12.05;44.84
40490;BME280;26196;52.302;10.572;2023-04-02T22:49:36;102153.66;;;11.99;45.42
40490;BME280;26196;52.302;10.572;2023-04-02T22:53:37;102154.56;;;11.96;44.77
40490;BME280;26196;52.302;10.572;2023-04-02T22:57:37;102157.22;;;11.95;44.86
40490;BME280;26196;52.302;10.572;2023-04-02T23:01:38;102164.22;;;11.93;45.00
40490;BME280;26196;52.302;10.572;2023-04-02T23:06:14;102162.47;;;11.89;44.80
40490;BME280;26196;52.302;10.572;2023-04-02T23:10:49;102162.47;;;11.86;45.08
40490;BME280;26196;52.302;10.572;2023-04-02T23:19:26;102165.13;;;11.78;44.98
40490;BME280;26196;52.302;10.572;2023-04-02T23:23:26;102163.41;;;11.77;45.10
40490;BME280;26196;52.302;10.572;2023-04-02T23:28:01;102160.78;;;11.75;44.90
40490;BME280;26196;52.302;10.572;2023-04-02T23:32:01;102166.94;;;11.71;44.53
40490;BME280;26196;52.302;10.572;2023-04-02T23:45:20;102168.75;;;11.63;44.61
40490;BME280;26196;52.302;10.572;2023-04-02T23:49:20;102160.88;;;11.57;44.39
40490;BME280;26196;52.302;10.572;2023-04-02T23:53:54;102173.13;;;11.56;44.40
40490;BME280;26196;52.302;10.572;2023-04-02T23:58:32;102171.41;;;11.52;44.39
